Lavaca Bay — WDF2105 — position and weather

sailwx.info

Track history (hours):
 
Tides and Currents Weather Stations Pressure Air Temp Water Temp Dewpoint Dewpoint Depression Visibility Wind Speed Wind Dir Waves Ship Positions

Lavaca Bay

Owner: Higman Barge Lines, Inc, Orange, TX. More information available from US FCC via Universal Licensing System and Coast Guard Vessel Documentation Center.

Last reported at 2017-Jun-18 11:34 UTC. Time now 2017-Jun-22 18:41 UTC.
Position N 29°28' W 094°51'.

Length 24 m; draft 3 m.

Type: Towing. MMSI: 367424940.

Date/timePositionNaut miles runAvg speedWind from/ knotsBaromVisibWave heightAir tempDewpointWater temp
2017-Jun-18 11:34N 29°28' W 094°51'1 8.0
2017-Jun-18 11:25N 29°29' W 094°52'3 8.0
2017-Jun-18 11:00N 29°32' W 094°54'4 8.0
2017-Jun-18 10:30N 29°35' W 094°56'4 7.4
2017-Jun-18 10:00N 29°39' W 094°58'4 7.2
2017-Jun-18 09:30N 29°42' W 094°60'3 6.1
2017-Jun-18 08:56N 29°44' W 095°03'3 6.0
2017-Jun-18 08:30N 29°46' W 095°05'3 6.2
2017-Jun-18 07:58N 29°44' W 095°09'4 5.4
2017-Jun-18 07:15N 29°43' W 095°13'2 0.1
2017-Jun-17 16:58N 29°43' W 095°15'0 0.1
2017-Jun-17 16:25N 29°43' W 095°15'3 6.4
2017-Jun-17 15:53N 29°45' W 095°11'3 7.1
2017-Jun-17 15:30N 29°44' W 095°08'2 2.2
2017-Jun-17 14:36N 29°46' W 095°07'1 0.1
2017-Jun-17 01:43N 29°45' W 095°06'1 2.0
2017-Jun-17 01:22N 29°46' W 095°06'1 1.4
2017-Jun-17 00:59N 29°46' W 095°05'1 0.8
2017-Jun-16 23:22N 29°46' W 095°07'1 1.4
2017-Jun-16 23:00N 29°46' W 095°06'0 0.0
2017-Jun-16 22:30N 29°46' W 095°06'0 0.0
2017-Jun-16 21:38N 29°46' W 095°06'1 2.9
2017-Jun-16 21:27N 29°45' W 095°06'1 1.2
2017-Jun-16 20:55N 29°46' W 095°06'1 1.7
2017-Jun-16 20:30N 29°46' W 095°05'4 6.0
2017-Jun-16 19:52N 29°44' W 095°09'3 6.5
2017-Jun-16 19:23N 29°43' W 095°13'2 0.3
2017-Jun-16 12:11N 29°43' W 095°15'0 0.0
2017-Jun-16 11:47N 29°43' W 095°15'0 0.0
2017-Jun-16 11:29N 29°43' W 095°15'0 0.0
2017-Jun-16 10:45N 29°43' W 095°15'0 0.0
2017-Jun-16 10:22N 29°43' W 095°15'0 0.0
2017-Jun-15 19:57N 29°43' W 095°15'0 0.0
2017-Jun-15 18:55N 29°43' W 095°15'0 0.0
2017-Jun-15 18:22N 29°43' W 095°15'0 0.0
2017-Jun-15 17:43N 29°43' W 095°15'0 0.0
2017-Jun-15 15:27N 29°43' W 095°15'0 0.1
2017-Jun-15 14:59N 29°43' W 095°15'3 2.8
2017-Jun-15 13:54N 29°44' W 095°12'2 5.4
2017-Jun-15 13:30N 29°45' W 095°10'2 4.5
2017-Jun-15 12:59N 29°44' W 095°07'2 5.0
2017-Jun-15 12:29N 29°46' W 095°05'3 7.2
2017-Jun-15 12:00N 29°44' W 095°02'3 5.4
2017-Jun-15 11:30N 29°42' W 094°59'4 8.0
2017-Jun-15 11:00N 29°38' W 094°58'4 8.2
2017-Jun-15 10:30N 29°34' W 094°56'4 8.0
2017-Jun-15 10:00N 29°31' W 094°53'5 7.8
2017-Jun-15 09:25N 29°27' W 094°51'  
2017-Jun-11 08:28N 29°23' W 094°49'6 8.1
2017-Jun-11 07:46N 29°29' W 094°51'2 8.2
2017-Jun-11 07:30N 29°30' W 094°53'4 7.9
2017-Jun-11 07:00N 29°34' W 094°55'4 7.8
2017-Jun-11 06:30N 29°37' W 094°58'3 6.6
2017-Jun-11 06:00N 29°40' W 094°59'4 7.2
2017-Jun-11 05:30N 29°43' W 095°01'3 6.6
2017-Jun-11 05:00N 29°45' W 095°04'3 5.8
2017-Jun-11 04:28N 29°44' W 095°07'3 6.8
2017-Jun-11 03:57N 29°45' W 095°11'1 0.0
2017-Jun-10 12:26N 29°45' W 095°12'0 0.0
2017-Jun-10 11:54N 29°45' W 095°12'0 0.0
2017-Jun-10 10:42N 29°45' W 095°12'0 0.0
2017-Jun-10 07:38N 29°44' W 095°12'0 0.4
2017-Jun-10 07:29N 29°45' W 095°12'0 0.7
2017-Jun-10 06:56N 29°45' W 095°12'2 5.7
2017-Jun-10 06:30N 29°44' W 095°09'3 6.2
2017-Jun-10 06:00N 29°45' W 095°06'1 2.8
2017-Jun-10 05:30N 29°47' W 095°05'0 0.2
2017-Jun-10 05:00N 29°46' W 095°05'0 0.0
2017-Jun-10 04:30N 29°46' W 095°05'0 0.0
2017-Jun-10 04:00N 29°46' W 095°05'0 0.0
2017-Jun-10 03:30N 29°46' W 095°05'0 0.0
2017-Jun-10 03:00N 29°46' W 095°05'0 0.0
2017-Jun-10 02:30N 29°46' W 095°05'0 0.0
2017-Jun-10 02:00N 29°46' W 095°05'0 0.0
2017-Jun-10 01:30N 29°46' W 095°05'0 0.0
2017-Jun-10 01:00N 29°46' W 095°05'0 0.0
2017-Jun-10 00:30N 29°46' W 095°05'0 0.0
2017-Jun-10 00:00N 29°46' W 095°05'0 0.0
2017-Jun-09 23:30N 29°46' W 095°05'0 0.0
2017-Jun-09 23:00N 29°46' W 095°05'0 0.0
2017-Jun-09 22:30N 29°46' W 095°05'0 0.0
2017-Jun-09 22:00N 29°46' W 095°05'0 0.0
2017-Jun-09 21:30N 29°46' W 095°05'0 0.0
2017-Jun-09 21:00N 29°46' W 095°05'0 0.0
2017-Jun-09 20:30N 29°46' W 095°05'0 0.0
2017-Jun-09 20:00N 29°46' W 095°05'0 0.0
2017-Jun-09 19:30N 29°46' W 095°05'0 0.0
2017-Jun-09 19:00N 29°46' W 095°05'0 0.0
2017-Jun-09 18:30N 29°46' W 095°05'0 0.0
2017-Jun-09 18:00N 29°46' W 095°05'0 0.0
2017-Jun-09 17:30N 29°46' W 095°05'0 0.0
2017-Jun-09 17:00N 29°46' W 095°05'0 0.0
2017-Jun-09 16:30N 29°46' W 095°05'0 0.0
2017-Jun-09 16:00N 29°46' W 095°05'0 0.0
2017-Jun-09 15:30N 29°46' W 095°05'0 0.0
2017-Jun-09 15:00N 29°46' W 095°05'0 0.0
2017-Jun-09 14:30N 29°46' W 095°05'0 0.0
2017-Jun-09 13:30N 29°46' W 095°05'0 0.0
2017-Jun-09 13:00N 29°46' W 095°05'0 0.0
2017-Jun-09 12:30N 29°46' W 095°05'0 0.0
2017-Jun-09 12:00N 29°46' W 095°05'0 0.0
2017-Jun-09 11:30N 29°46' W 095°05'0 0.0
2017-Jun-09 11:00N 29°46' W 095°05'0 0.0
2017-Jun-09 10:30N 29°46' W 095°05'0 0.0
2017-Jun-09 10:00N 29°46' W 095°05'0 0.0
2017-Jun-09 09:30N 29°46' W 095°05'0 0.0
2017-Jun-09 09:00N 29°46' W 095°05'0 0.0
2017-Jun-09 08:30N 29°46' W 095°05'0 0.0
2017-Jun-09 08:00N 29°46' W 095°05'0 0.0
2017-Jun-09 07:30N 29°46' W 095°05'0 0.0
2017-Jun-09 07:00N 29°46' W 095°05'0 0.0
2017-Jun-09 06:30N 29°46' W 095°05'0 0.0
2017-Jun-09 06:00N 29°46' W 095°05'0 0.0
2017-Jun-09 05:30N 29°46' W 095°05'0 0.0
2017-Jun-09 05:00N 29°46' W 095°05'0 0.0
2017-Jun-09 04:30N 29°46' W 095°05'0 0.0
2017-Jun-09 04:00N 29°46' W 095°05'0 0.0
2017-Jun-09 03:30N 29°46' W 095°05'0 0.0
2017-Jun-09 03:00N 29°46' W 095°05'0 0.0
2017-Jun-09 02:30N 29°46' W 095°05'0 0.0
2017-Jun-09 02:00N 29°46' W 095°05'0 0.0
2017-Jun-09 01:30N 29°46' W 095°05'0 0.0
2017-Jun-09 01:00N 29°46' W 095°05'0 0.0
2017-Jun-09 00:30N 29°46' W 095°05'0 0.1
2017-Jun-09 00:00N 29°47' W 095°05'0 0.0
2017-Jun-08 23:25N 29°46' W 095°05'0 0.0
2017-Jun-08 23:00N 29°47' W 095°05'0 0.0
2017-Jun-08 22:25N 29°47' W 095°05'0 0.0
2017-Jun-08 21:46N 29°47' W 095°05'0 0.0
2017-Jun-08 21:24N 29°47' W 095°05'0 0.0
2017-Jun-08 20:59N 29°47' W 095°05'0 0.0
2017-Jun-08 20:30N 29°47' W 095°05'0 0.0
2017-Jun-08 20:00N 29°47' W 095°05'0 0.0
2017-Jun-08 19:30N 29°47' W 095°05'0 0.0
2017-Jun-08 19:00N 29°47' W 095°05'0 0.0
2017-Jun-08 18:28N 29°47' W 095°05'0 0.0
2017-Jun-08 17:58N 29°47' W 095°05'0 0.0
2017-Jun-08 17:29N 29°47' W 095°05'0 0.0
2017-Jun-08 17:00N 29°47' W 095°05'0 0.0
2017-Jun-08 16:30N 29°47' W 095°05'0 0.6
2017-Jun-08 16:00N 29°46' W 095°05'2 1.9
2017-Jun-08 14:48N 29°45' W 095°07'1 4.5
2017-Jun-08 14:30N 29°46' W 095°05'1 1.1
2017-Jun-08 13:30N 29°47' W 095°05'0 0.0
2017-Jun-08 13:00N 29°47' W 095°05'0 0.0
2017-Jun-08 12:30N 29°47' W 095°05'0 0.0
2017-Jun-08 12:00N 29°47' W 095°05'  
Track history (hours):
 
Tides and Currents Weather Stations Pressure Air Temp Water Temp Dewpoint Dewpoint Depression Visibility Wind Speed Wind Dir Waves Ship Positions

Lavaca Bay

Owner: Higman Barge Lines, Inc, Orange, TX. More information available from US FCC via Universal Licensing System and Coast Guard Vessel Documentation Center.

Last reported at 2017-Jun-18 11:34 UTC. Time now 2017-Jun-22 18:41 UTC.
Position N 29°28' W 094°51'.

Length 24 m; draft 3 m.

Type: Towing. MMSI: 367424940.

Date/timePositionNaut miles runAvg speedWind from/ knotsBaromVisibWave heightAir tempDewpointWater temp
2017-Jun-18 11:34N 29°28' W 094°51'1 8.0
2017-Jun-18 11:25N 29°29' W 094°52'3 8.0
2017-Jun-18 11:00N 29°32' W 094°54'4 8.0
2017-Jun-18 10:30N 29°35' W 094°56'4 7.4
2017-Jun-18 10:00N 29°39' W 094°58'4 7.2
2017-Jun-18 09:30N 29°42' W 094°60'3 6.1
2017-Jun-18 08:56N 29°44' W 095°03'3 6.0
2017-Jun-18 08:30N 29°46' W 095°05'3 6.2
2017-Jun-18 07:58N 29°44' W 095°09'4 5.4
2017-Jun-18 07:15N 29°43' W 095°13'2 0.1
2017-Jun-17 16:58N 29°43' W 095°15'0 0.1
2017-Jun-17 16:25N 29°43' W 095°15'3 6.4
2017-Jun-17 15:53N 29°45' W 095°11'3 7.1
2017-Jun-17 15:30N 29°44' W 095°08'2 2.2
2017-Jun-17 14:36N 29°46' W 095°07'1 0.1
2017-Jun-17 01:43N 29°45' W 095°06'1 2.0
2017-Jun-17 01:22N 29°46' W 095°06'1 1.4
2017-Jun-17 00:59N 29°46' W 095°05'1 0.8
2017-Jun-16 23:22N 29°46' W 095°07'1 1.4
2017-Jun-16 23:00N 29°46' W 095°06'0 0.0
2017-Jun-16 22:30N 29°46' W 095°06'0 0.0
2017-Jun-16 21:38N 29°46' W 095°06'1 2.9
2017-Jun-16 21:27N 29°45' W 095°06'1 1.2
2017-Jun-16 20:55N 29°46' W 095°06'1 1.7
2017-Jun-16 20:30N 29°46' W 095°05'4 6.0
2017-Jun-16 19:52N 29°44' W 095°09'3 6.5
2017-Jun-16 19:23N 29°43' W 095°13'2 0.3
2017-Jun-16 12:11N 29°43' W 095°15'0 0.0
2017-Jun-16 11:47N 29°43' W 095°15'0 0.0
2017-Jun-16 11:29N 29°43' W 095°15'0 0.0
2017-Jun-16 10:45N 29°43' W 095°15'0 0.0
2017-Jun-16 10:22N 29°43' W 095°15'0 0.0
2017-Jun-15 19:57N 29°43' W 095°15'0 0.0
2017-Jun-15 18:55N 29°43' W 095°15'0 0.0
2017-Jun-15 18:22N 29°43' W 095°15'0 0.0
2017-Jun-15 17:43N 29°43' W 095°15'0 0.0
2017-Jun-15 15:27N 29°43' W 095°15'0 0.1
2017-Jun-15 14:59N 29°43' W 095°15'3 2.8
2017-Jun-15 13:54N 29°44' W 095°12'2 5.4
2017-Jun-15 13:30N 29°45' W 095°10'2 4.5
2017-Jun-15 12:59N 29°44' W 095°07'2 5.0
2017-Jun-15 12:29N 29°46' W 095°05'3 7.2
2017-Jun-15 12:00N 29°44' W 095°02'3 5.4
2017-Jun-15 11:30N 29°42' W 094°59'4 8.0
2017-Jun-15 11:00N 29°38' W 094°58'4 8.2
2017-Jun-15 10:30N 29°34' W 094°56'4 8.0
2017-Jun-15 10:00N 29°31' W 094°53'5 7.8
2017-Jun-15 09:25N 29°27' W 094°51'  
2017-Jun-11 08:28N 29°23' W 094°49'6 8.1
2017-Jun-11 07:46N 29°29' W 094°51'2 8.2
2017-Jun-11 07:30N 29°30' W 094°53'4 7.9
2017-Jun-11 07:00N 29°34' W 094°55'4 7.8
2017-Jun-11 06:30N 29°37' W 094°58'3 6.6
2017-Jun-11 06:00N 29°40' W 094°59'4 7.2
2017-Jun-11 05:30N 29°43' W 095°01'3 6.6
2017-Jun-11 05:00N 29°45' W 095°04'3 5.8
2017-Jun-11 04:28N 29°44' W 095°07'3 6.8
2017-Jun-11 03:57N 29°45' W 095°11'1 0.0
2017-Jun-10 12:26N 29°45' W 095°12'0 0.0
2017-Jun-10 11:54N 29°45' W 095°12'0 0.0
2017-Jun-10 10:42N 29°45' W 095°12'0 0.0
2017-Jun-10 07:38N 29°44' W 095°12'0 0.4
2017-Jun-10 07:29N 29°45' W 095°12'0 0.7
2017-Jun-10 06:56N 29°45' W 095°12'2 5.7
2017-Jun-10 06:30N 29°44' W 095°09'3 6.2
2017-Jun-10 06:00N 29°45' W 095°06'1 2.8
2017-Jun-10 05:30N 29°47' W 095°05'0 0.2
2017-Jun-10 05:00N 29°46' W 095°05'0 0.0
2017-Jun-10 04:30N 29°46' W 095°05'0 0.0
2017-Jun-10 04:00N 29°46' W 095°05'0 0.0
2017-Jun-10 03:30N 29°46' W 095°05'0 0.0
2017-Jun-10 03:00N 29°46' W 095°05'0 0.0
2017-Jun-10 02:30N 29°46' W 095°05'0 0.0
2017-Jun-10 02:00N 29°46' W 095°05'0 0.0
2017-Jun-10 01:30N 29°46' W 095°05'0 0.0
2017-Jun-10 01:00N 29°46' W 095°05'0 0.0
2017-Jun-10 00:30N 29°46' W 095°05'0 0.0
2017-Jun-10 00:00N 29°46' W 095°05'0 0.0
2017-Jun-09 23:30N 29°46' W 095°05'0 0.0
2017-Jun-09 23:00N 29°46' W 095°05'0 0.0
2017-Jun-09 22:30N 29°46' W 095°05'0 0.0
2017-Jun-09 22:00N 29°46' W 095°05'0 0.0
2017-Jun-09 21:30N 29°46' W 095°05'0 0.0
2017-Jun-09 21:00N 29°46' W 095°05'0 0.0
2017-Jun-09 20:30N 29°46' W 095°05'0 0.0
2017-Jun-09 20:00N 29°46' W 095°05'0 0.0
2017-Jun-09 19:30N 29°46' W 095°05'0 0.0
2017-Jun-09 19:00N 29°46' W 095°05'0 0.0
2017-Jun-09 18:30N 29°46' W 095°05'0 0.0
2017-Jun-09 18:00N 29°46' W 095°05'0 0.0
2017-Jun-09 17:30N 29°46' W 095°05'0 0.0
2017-Jun-09 17:00N 29°46' W 095°05'0 0.0
2017-Jun-09 16:30N 29°46' W 095°05'0 0.0
2017-Jun-09 16:00N 29°46' W 095°05'0 0.0
2017-Jun-09 15:30N 29°46' W 095°05'0 0.0
2017-Jun-09 15:00N 29°46' W 095°05'0 0.0
2017-Jun-09 14:30N 29°46' W 095°05'0 0.0
2017-Jun-09 13:30N 29°46' W 095°05'0 0.0
2017-Jun-09 13:00N 29°46' W 095°05'0 0.0
2017-Jun-09 12:30N 29°46' W 095°05'0 0.0
2017-Jun-09 12:00N 29°46' W 095°05'0 0.0
2017-Jun-09 11:30N 29°46' W 095°05'0 0.0
2017-Jun-09 11:00N 29°46' W 095°05'0 0.0
2017-Jun-09 10:30N 29°46' W 095°05'0 0.0
2017-Jun-09 10:00N 29°46' W 095°05'0 0.0
2017-Jun-09 09:30N 29°46' W 095°05'0 0.0
2017-Jun-09 09:00N 29°46' W 095°05'0 0.0
2017-Jun-09 08:30N 29°46' W 095°05'0 0.0
2017-Jun-09 08:00N 29°46' W 095°05'0 0.0
2017-Jun-09 07:30N 29°46' W 095°05'0 0.0
2017-Jun-09 07:00N 29°46' W 095°05'0 0.0
2017-Jun-09 06:30N 29°46' W 095°05'0 0.0
2017-Jun-09 06:00N 29°46' W 095°05'0 0.0
2017-Jun-09 05:30N 29°46' W 095°05'0 0.0
2017-Jun-09 05:00N 29°46' W 095°05'0 0.0
2017-Jun-09 04:30N 29°46' W 095°05'0 0.0
2017-Jun-09 04:00N 29°46' W 095°05'0 0.0
2017-Jun-09 03:30N 29°46' W 095°05'0 0.0
2017-Jun-09 03:00N 29°46' W 095°05'0 0.0
2017-Jun-09 02:30N 29°46' W 095°05'0 0.0
2017-Jun-09 02:00N 29°46' W 095°05'0 0.0
2017-Jun-09 01:30N 29°46' W 095°05'0 0.0
2017-Jun-09 01:00N 29°46' W 095°05'0 0.0
2017-Jun-09 00:30N 29°46' W 095°05'0 0.1
2017-Jun-09 00:00N 29°47' W 095°05'0 0.0
2017-Jun-08 23:25N 29°46' W 095°05'0 0.0
2017-Jun-08 23:00N 29°47' W 095°05'0 0.0
2017-Jun-08 22:25N 29°47' W 095°05'0 0.0
2017-Jun-08 21:46N 29°47' W 095°05'0 0.0
2017-Jun-08 21:24N 29°47' W 095°05'0 0.0
2017-Jun-08 20:59N 29°47' W 095°05'0 0.0
2017-Jun-08 20:30N 29°47' W 095°05'0 0.0
2017-Jun-08 20:00N 29°47' W 095°05'0 0.0
2017-Jun-08 19:30N 29°47' W 095°05'0 0.0
2017-Jun-08 19:00N 29°47' W 095°05'0 0.0
2017-Jun-08 18:28N 29°47' W 095°05'0 0.0
2017-Jun-08 17:58N 29°47' W 095°05'0 0.0
2017-Jun-08 17:29N 29°47' W 095°05'0 0.0
2017-Jun-08 17:00N 29°47' W 095°05'0 0.0
2017-Jun-08 16:30N 29°47' W 095°05'0 0.6
2017-Jun-08 16:00N 29°46' W 095°05'2 1.9
2017-Jun-08 14:48N 29°45' W 095°07'1 4.5
2017-Jun-08 14:30N 29°46' W 095°05'1 1.1
2017-Jun-08 13:30N 29°47' W 095°05'0 0.0
2017-Jun-08 13:00N 29°47' W 095°05'0 0.0
2017-Jun-08 12:30N 29°47' W 095°05'0 0.0
2017-Jun-08 12:00N 29°47' W 095°05'  

Dump ship's entire track history